createdAt,value
2018-06-13T00:00:55.907Z,17.26
2018-06-13T00:01:56.083Z,17.20
2018-06-13T00:02:56.265Z,17.29
2018-06-13T00:03:56.438Z,17.27
2018-06-13T00:04:56.611Z,17.24
2018-06-13T00:05:56.795Z,17.23
2018-06-13T00:06:56.984Z,17.22
2018-06-13T00:07:57.165Z,17.15
2018-06-13T00:08:57.348Z,17.22
2018-06-13T00:09:57.527Z,17.23
2018-06-13T00:10:57.754Z,17.26
2018-06-13T00:11:57.923Z,17.19
2018-06-13T00:12:58.103Z,17.19
2018-06-13T00:13:58.277Z,17.15
2018-06-13T00:14:58.453Z,17.19
2018-06-13T00:15:58.627Z,17.15
2018-06-13T00:16:58.801Z,17.23
2018-06-13T00:17:58.979Z,17.14
2018-06-13T00:18:59.156Z,17.19
2018-06-13T00:19:59.332Z,17.12
2018-06-13T00:20:59.524Z,17.06
2018-06-13T00:21:59.738Z,17.14
2018-06-13T00:22:59.937Z,17.14
2018-06-13T00:24:00.121Z,17.12
2018-06-13T00:25:00.330Z,17.05
2018-06-13T00:26:00.509Z,17.02
2018-06-13T00:27:00.697Z,17.02
2018-06-13T00:28:00.877Z,17.12
2018-06-13T00:29:01.064Z,17.11
2018-06-13T00:30:01.274Z,17.15
2018-06-13T00:31:01.447Z,17.05
2018-06-13T00:32:01.626Z,17.06
2018-06-13T00:33:01.823Z,17.02
2018-06-13T00:34:02.002Z,17.02
2018-06-13T00:35:02.175Z,17.06
2018-06-13T00:36:02.367Z,17.06
2018-06-13T00:37:02.589Z,17.02
2018-06-13T00:38:02.752Z,17.06
2018-06-13T00:39:02.942Z,17.11
2018-06-13T00:40:03.130Z,17.19
2018-06-13T00:41:03.312Z,17.16
2018-06-13T00:42:03.487Z,17.16
2018-06-13T00:43:03.674Z,17.19
2018-06-13T00:44:03.843Z,17.27
2018-06-13T00:45:04.018Z,17.19
2018-06-13T00:46:04.202Z,17.19
2018-06-13T00:47:04.447Z,17.26
2018-06-13T00:48:04.581Z,17.19
2018-06-13T00:49:04.751Z,17.15
2018-06-13T00:50:04.924Z,17.19
2018-06-13T00:51:05.102Z,17.06
2018-06-13T00:52:05.281Z,17.11
2018-06-13T00:53:05.454Z,17.14
2018-06-13T00:54:05.639Z,17.19
2018-06-13T00:55:05.816Z,17.14
2018-06-13T00:56:05.997Z,17.15
2018-06-13T00:57:06.169Z,17.14
2018-06-13T00:58:06.348Z,17.02
2018-06-13T00:59:06.525Z,16.93
2018-06-13T01:00:09.158Z,16.83
2018-06-13T01:01:06.836Z,16.93
2018-06-13T01:02:07.016Z,16.93
2018-06-13T01:03:07.184Z,16.94
2018-06-13T01:04:07.369Z,16.94
2018-06-13T01:05:07.550Z,17.01
2018-06-13T01:06:07.730Z,17.02
2018-06-13T01:07:07.913Z,17.01
2018-06-13T01:08:09.840Z,16.99
2018-06-13T01:09:08.279Z,16.84
2018-06-13T01:10:08.502Z,16.87
2018-06-13T01:11:10.724Z,16.90
2018-06-13T01:12:08.805Z,16.97
2018-06-13T01:13:08.986Z,16.96
2018-06-13T01:14:09.159Z,16.83
2018-06-13T01:15:09.340Z,16.87
2018-06-13T01:16:09.525Z,16.91
2018-06-13T01:17:09.695Z,16.93
2018-06-13T01:18:09.870Z,16.91
2018-06-13T01:19:10.045Z,16.89
2018-06-13T01:20:10.216Z,16.87
2018-06-13T01:21:10.387Z,16.97
2018-06-13T01:22:10.560Z,16.89
2018-06-13T01:23:10.730Z,16.89
2018-06-13T01:24:10.907Z,16.93
2018-06-13T01:25:11.082Z,16.87
2018-06-13T01:26:11.257Z,16.86
2018-06-13T01:27:11.433Z,16.96
2018-06-13T01:28:11.614Z,16.96
2018-06-13T01:29:11.839Z,16.94
2018-06-13T01:30:11.966Z,16.99
2018-06-13T01:31:12.135Z,16.96
2018-06-13T01:32:12.314Z,16.86
2018-06-13T01:33:12.491Z,16.96
2018-06-13T01:34:12.663Z,16.84
2018-06-13T01:35:12.842Z,16.89
2018-06-13T01:36:13.025Z,16.81
2018-06-13T01:37:13.203Z,16.84
2018-06-13T01:38:13.378Z,16.78
2018-06-13T01:39:13.553Z,16.78
2018-06-13T01:40:13.724Z,16.74
2018-06-13T01:41:13.897Z,16.75
2018-06-13T01:42:14.078Z,16.79
2018-06-13T01:43:14.243Z,16.75
2018-06-13T01:44:14.422Z,16.78
2018-06-13T01:45:14.594Z,16.79
2018-06-13T01:46:14.768Z,16.84
2018-06-13T01:47:14.949Z,16.86
2018-06-13T01:48:15.127Z,16.87
2018-06-13T01:49:15.313Z,16.84
2018-06-13T01:50:15.486Z,16.83
2018-06-13T01:51:15.661Z,16.76
2018-06-13T01:52:15.832Z,16.66
2018-06-13T01:53:16.014Z,16.76
2018-06-13T01:54:16.189Z,16.78
2018-06-13T01:55:16.370Z,16.78
2018-06-13T01:56:16.547Z,16.72
2018-06-13T01:57:16.723Z,16.83
2018-06-13T01:58:16.893Z,16.83
2018-06-13T01:59:17.065Z,16.79
2018-06-13T02:00:17.245Z,16.74
2018-06-13T02:01:17.411Z,16.71
2018-06-13T02:02:17.596Z,16.81
2018-06-13T02:03:17.781Z,16.83
2018-06-13T02:04:17.955Z,16.81
2018-06-13T02:05:18.133Z,16.69
2018-06-13T02:06:18.311Z,16.66
2018-06-13T02:07:18.487Z,16.74
2018-06-13T02:08:18.662Z,16.68
2018-06-13T02:09:18.849Z,16.79
2018-06-13T02:10:19.024Z,16.81
2018-06-13T02:11:19.205Z,16.71
2018-06-13T02:12:19.378Z,16.68
2018-06-13T02:13:19.553Z,16.68
2018-06-13T02:14:19.728Z,16.61
2018-06-13T02:15:19.907Z,16.61
2018-06-13T02:16:20.081Z,16.69
2018-06-13T02:17:20.253Z,16.66
2018-06-13T02:18:20.430Z,16.61
2018-06-13T02:19:20.603Z,16.61
2018-06-13T02:20:20.782Z,16.64
2018-06-13T02:21:20.967Z,16.54
2018-06-13T02:22:21.145Z,16.56
2018-06-13T02:23:21.323Z,16.54
2018-06-13T02:24:21.498Z,16.60
2018-06-13T02:25:21.676Z,16.66
2018-06-13T02:26:21.857Z,16.61
2018-06-13T02:27:22.063Z,16.71
2018-06-13T02:28:22.209Z,16.64
2018-06-13T02:29:22.386Z,16.61
2018-06-13T02:30:22.563Z,16.65
2018-06-13T02:31:22.743Z,16.60
2018-06-13T02:32:22.915Z,16.71
2018-06-13T02:33:23.095Z,16.54
2018-06-13T02:34:23.268Z,16.53
2018-06-13T02:35:23.451Z,16.53
2018-06-13T02:36:23.623Z,16.51
2018-06-13T02:37:23.811Z,16.54
2018-06-13T02:38:24.007Z,16.46
2018-06-13T02:39:24.200Z,16.47
2018-06-13T02:40:24.384Z,16.46
2018-06-13T02:41:24.558Z,16.38
2018-06-13T02:42:24.734Z,16.43
2018-06-13T02:43:24.909Z,16.56
2018-06-13T02:44:25.108Z,16.51
2018-06-13T02:45:25.330Z,16.49
2018-06-13T02:46:25.504Z,16.46
2018-06-13T02:47:25.679Z,16.54
2018-06-13T02:48:25.858Z,16.54
2018-06-13T02:49:26.032Z,16.49
2018-06-13T02:50:26.217Z,16.56
2018-06-13T02:51:26.393Z,16.42
2018-06-13T02:52:26.574Z,16.46
2018-06-13T02:53:26.794Z,16.39
2018-06-13T02:54:27.009Z,16.24
2018-06-13T02:55:27.198Z,16.23
2018-06-13T02:56:27.373Z,16.26
2018-06-13T02:57:27.551Z,16.24
2018-06-13T02:58:27.727Z,16.12
2018-06-13T02:59:27.896Z,16.15
2018-06-13T03:00:28.080Z,16.09
2018-06-13T03:01:28.253Z,16.12
2018-06-13T03:02:28.422Z,16.12
2018-06-13T03:03:28.595Z,16.12
2018-06-13T03:04:28.777Z,16.12
2018-06-13T03:05:28.954Z,16.16
2018-06-13T03:06:29.141Z,16.09
2018-06-13T03:07:29.325Z,16.09
2018-06-13T03:08:29.519Z,15.98
2018-06-13T03:09:29.694Z,15.75
2018-06-13T03:10:29.879Z,15.82
2018-06-13T03:11:30.058Z,15.83
2018-06-13T03:12:30.243Z,15.77
2018-06-13T03:13:30.415Z,15.77
2018-06-13T03:14:30.588Z,15.79
2018-06-13T03:15:30.767Z,15.86
2018-06-13T03:16:30.940Z,15.86
2018-06-13T03:17:31.110Z,15.73
2018-06-13T03:18:31.287Z,15.76
2018-06-13T03:19:31.461Z,15.70
2018-06-13T03:20:31.636Z,15.47
2018-06-13T03:21:31.824Z,15.46
2018-06-13T03:22:31.999Z,15.42
2018-06-13T03:23:32.173Z,15.35
2018-06-13T03:24:32.350Z,15.39
2018-06-13T03:25:32.526Z,15.35
2018-06-13T03:26:32.701Z,15.31
2018-06-13T03:27:32.878Z,15.27
2018-06-13T03:28:33.045Z,15.18
2018-06-13T03:29:33.232Z,15.24
2018-06-13T03:30:33.406Z,15.25
2018-06-13T03:31:33.605Z,15.17
2018-06-13T03:32:33.778Z,15.22
2018-06-13T03:33:33.958Z,15.22
2018-06-13T03:34:34.136Z,15.25
2018-06-13T03:35:34.315Z,15.17
2018-06-13T03:36:34.490Z,15.25
2018-06-13T03:37:34.665Z,15.14
2018-06-13T03:38:34.845Z,15.11
2018-06-13T03:39:35.017Z,15.09
2018-06-13T03:40:35.199Z,15.10
2018-06-13T03:41:35.365Z,15.04
2018-06-13T03:42:35.536Z,15.00
2018-06-13T03:43:35.711Z,15.10
2018-06-13T03:44:35.892Z,15.00
2018-06-13T03:45:36.075Z,15.03
2018-06-13T03:46:36.265Z,14.99
2018-06-13T03:47:38.610Z,14.92
2018-06-13T03:48:41.249Z,14.92
2018-06-13T03:49:40.597Z,14.82
2018-06-13T03:50:40.043Z,14.86
2018-06-13T03:51:41.184Z,14.88
2018-06-13T03:52:38.813Z,14.92
2018-06-13T03:53:38.802Z,14.89
2018-06-13T03:54:41.297Z,14.86
2018-06-13T03:55:39.069Z,14.84
2018-06-13T03:56:40.483Z,14.85
2018-06-13T03:57:40.508Z,14.91
2018-06-13T03:58:41.768Z,14.84
2018-06-13T03:59:43.460Z,14.85
2018-06-13T04:00:42.300Z,14.89
2018-06-13T04:01:40.166Z,14.91
2018-06-13T04:02:40.108Z,14.94
2018-06-13T04:03:40.501Z,14.91
2018-06-13T04:04:40.742Z,14.91
2018-06-13T04:05:41.020Z,15.03
2018-06-13T04:06:41.050Z,14.96
2018-06-13T04:07:41.293Z,14.99
2018-06-13T04:08:41.572Z,14.97
2018-06-13T04:09:41.276Z,15.07
2018-06-13T04:10:41.370Z,15.00
2018-06-13T04:11:41.994Z,15.10
2018-06-13T04:12:42.089Z,15.06
2018-06-13T04:13:42.108Z,15.07
2018-06-13T04:14:42.019Z,15.11
2018-06-13T04:15:42.569Z,15.10
2018-06-13T04:16:42.556Z,15.10
2018-06-13T04:17:42.854Z,15.18
2018-06-13T04:18:42.623Z,15.19
2018-06-13T04:19:43.213Z,15.24
2018-06-13T04:20:43.330Z,15.10
2018-06-13T04:21:43.558Z,15.24
2018-06-13T04:22:43.660Z,15.15
2018-06-13T04:23:43.539Z,15.21
2018-06-13T04:24:44.239Z,15.24
2018-06-13T04:25:44.085Z,15.31
2018-06-13T04:26:44.302Z,15.28
2018-06-13T04:27:42.797Z,15.39
2018-06-13T04:28:44.476Z,15.42
2018-06-13T04:29:44.812Z,15.52
2018-06-13T04:30:45.075Z,15.49
2018-06-13T04:31:45.188Z,15.59
2018-06-13T04:32:45.026Z,15.57
2018-06-13T04:33:45.288Z,15.62
2018-06-13T04:34:45.348Z,15.59
2018-06-13T04:35:45.803Z,15.61
2018-06-13T04:36:45.050Z,15.61
2018-06-13T04:37:46.257Z,15.65
2018-06-13T04:38:45.440Z,15.61
2018-06-13T04:39:46.732Z,15.67
2018-06-13T04:40:46.774Z,15.80
2018-06-13T04:41:47.105Z,15.65
2018-06-13T04:42:46.982Z,15.70
2018-06-13T04:43:47.631Z,15.80
2018-06-13T04:44:48.910Z,15.72
2018-06-13T04:45:48.958Z,15.73
2018-06-13T04:46:50.472Z,15.70
2018-06-13T04:47:47.931Z,15.82
2018-06-13T04:48:47.772Z,15.77
2018-06-13T04:49:46.540Z,15.83
2018-06-13T04:50:46.721Z,15.84
2018-06-13T04:51:46.892Z,15.82
2018-06-13T04:52:47.071Z,15.88
2018-06-13T04:53:47.239Z,15.95
2018-06-13T04:54:47.412Z,15.92
2018-06-13T04:55:47.603Z,15.97
2018-06-13T04:56:48.020Z,16.04
2018-06-13T04:57:47.971Z,16.09
2018-06-13T04:58:48.152Z,16.08
2018-06-13T04:59:48.336Z,16.04
2018-06-13T05:00:48.507Z,16.09
2018-06-13T05:01:48.690Z,16.12
2018-06-13T05:02:48.881Z,16.15
2018-06-13T05:03:49.050Z,16.13
2018-06-13T05:04:49.247Z,16.17
2018-06-13T05:05:50.317Z,16.13
2018-06-13T05:06:49.637Z,16.20
2018-06-13T05:07:49.830Z,16.20
2018-06-13T05:08:50.103Z,16.24
2018-06-13T05:09:50.288Z,16.13
2018-06-13T05:10:50.329Z,16.15
2018-06-13T05:11:50.519Z,16.12
2018-06-13T05:12:50.701Z,16.05
2018-06-13T05:13:51.043Z,16.08
2018-06-13T05:14:51.131Z,15.86
2018-06-13T05:15:51.306Z,15.98
2018-06-13T05:16:51.481Z,15.98
2018-06-13T05:17:51.655Z,16.00
2018-06-13T05:18:51.843Z,16.13
2018-06-13T05:19:52.107Z,16.15
2018-06-13T05:20:52.174Z,16.24
2018-06-13T05:21:52.358Z,16.20
2018-06-13T05:22:52.555Z,16.17
2018-06-13T05:23:52.746Z,16.33
2018-06-13T05:24:52.922Z,16.33
2018-06-13T05:25:53.112Z,16.26
2018-06-13T05:26:53.292Z,16.31
2018-06-13T05:27:53.554Z,16.35
2018-06-13T05:28:53.614Z,16.26
2018-06-13T05:29:53.881Z,16.29
2018-06-13T05:30:54.009Z,16.38
2018-06-13T05:31:54.063Z,16.41
2018-06-13T05:32:54.319Z,16.42
2018-06-13T05:33:54.380Z,16.47
2018-06-13T05:34:54.559Z,16.50
2018-06-13T05:35:54.752Z,16.49
2018-06-13T05:36:54.952Z,16.47
2018-06-13T05:37:55.130Z,16.43
2018-06-13T05:38:55.312Z,16.39
2018-06-13T05:39:55.483Z,16.47
2018-06-13T05:40:55.660Z,16.49
2018-06-13T05:41:55.840Z,16.38
2018-06-13T05:42:56.006Z,16.47
2018-06-13T05:43:56.200Z,16.41
2018-06-13T05:44:56.359Z,16.41
2018-06-13T05:45:56.565Z,16.39
2018-06-13T05:46:56.705Z,16.41
2018-06-13T05:47:56.884Z,16.43
2018-06-13T05:48:57.069Z,16.36
2018-06-13T05:49:57.250Z,16.49
2018-06-13T05:50:57.426Z,16.36
2018-06-13T05:51:57.597Z,16.42
2018-06-13T05:52:57.816Z,16.49
2018-06-13T05:53:57.943Z,16.50
2018-06-13T05:54:58.153Z,16.54
2018-06-13T05:55:58.308Z,16.53
2018-06-13T05:56:58.491Z,16.50
2018-06-13T05:57:58.668Z,16.50
2018-06-13T05:58:58.843Z,16.54
2018-06-13T05:59:59.020Z,16.46
2018-06-13T06:00:59.196Z,16.38
2018-06-13T06:01:59.373Z,16.33
2018-06-13T06:02:59.553Z,16.42
2018-06-13T06:04:00.007Z,16.43
2018-06-13T06:05:00.266Z,16.49
2018-06-13T06:06:00.377Z,16.47
2018-06-13T06:07:00.461Z,16.42
2018-06-13T06:08:00.614Z,16.39
2018-06-13T06:09:00.793Z,16.41
2018-06-13T06:10:00.961Z,16.58
2018-06-13T06:11:01.116Z,16.53
2018-06-13T06:12:01.129Z,16.51
2018-06-13T06:13:01.318Z,16.49
2018-06-13T06:14:01.518Z,16.39
2018-06-13T06:15:01.707Z,16.41
2018-06-13T06:16:01.681Z,16.42
2018-06-13T06:17:02.047Z,16.42
2018-06-13T06:18:02.034Z,16.38
2018-06-13T06:19:02.278Z,16.38
2018-06-13T06:20:02.499Z,16.38
2018-06-13T06:21:02.666Z,16.38
2018-06-13T06:22:02.698Z,16.33
2018-06-13T06:23:02.991Z,16.39
2018-06-13T06:24:03.184Z,16.54
2018-06-13T06:25:03.264Z,16.47
2018-06-13T06:26:03.405Z,16.47
2018-06-13T06:27:03.229Z,16.51
2018-06-13T06:28:03.622Z,16.57
2018-06-13T06:29:03.909Z,16.50
2018-06-13T06:30:03.963Z,16.60
2018-06-13T06:31:04.153Z,16.65
2018-06-13T06:32:04.338Z,16.69
2018-06-13T06:33:04.644Z,16.68
2018-06-13T06:34:04.751Z,16.76
2018-06-13T06:35:05.129Z,16.83
2018-06-13T06:36:05.128Z,16.89
2018-06-13T06:37:05.299Z,16.99
2018-06-13T06:38:05.383Z,16.99
2018-06-13T06:39:05.621Z,16.97
2018-06-13T06:40:05.739Z,16.99
2018-06-13T06:41:05.909Z,16.96
2018-06-13T06:42:05.968Z,16.97
2018-06-13T06:43:06.043Z,16.99
2018-06-13T06:44:06.252Z,17.14
2018-06-13T06:45:06.501Z,17.14
2018-06-13T06:46:06.542Z,17.23
2018-06-13T06:47:06.768Z,17.14
2018-06-13T06:48:07.165Z,16.99
2018-06-13T06:49:07.178Z,17.11
2018-06-13T06:50:07.142Z,17.04
2018-06-13T06:51:07.196Z,17.09
2018-06-13T06:52:07.371Z,17.15
2018-06-13T06:53:07.584Z,17.09
2018-06-13T06:54:07.954Z,17.14
2018-06-13T06:55:08.182Z,17.11
2018-06-13T06:56:08.437Z,17.19
2018-06-13T06:57:08.611Z,17.14
2018-06-13T06:58:08.440Z,17.05
2018-06-13T06:59:08.965Z,17.01
2018-06-13T07:00:08.982Z,16.99
2018-06-13T07:01:09.777Z,16.81
2018-06-13T07:02:09.356Z,16.94
2018-06-13T07:03:09.545Z,16.87
2018-06-13T07:04:09.661Z,16.72
2018-06-13T07:05:10.123Z,16.79
2018-06-13T07:06:09.787Z,16.83
2018-06-13T07:07:10.188Z,16.72
2018-06-13T07:08:10.324Z,16.68
2018-06-13T07:09:10.618Z,16.68
2018-06-13T07:10:10.925Z,16.76
2018-06-13T07:11:10.986Z,16.66
2018-06-13T07:12:11.566Z,16.72
2018-06-13T07:13:11.204Z,16.71
2018-06-13T07:14:11.173Z,16.72
2018-06-13T07:15:13.193Z,16.74
2018-06-13T07:16:13.224Z,16.69
2018-06-13T07:17:13.934Z,16.66
2018-06-13T07:18:12.459Z,16.69
2018-06-13T07:19:12.581Z,16.68
2018-06-13T07:20:11.865Z,16.84
2018-06-13T07:21:12.037Z,16.93
2018-06-13T07:22:12.211Z,16.90
2018-06-13T07:23:12.386Z,17.01
2018-06-13T07:24:12.564Z,16.87
2018-06-13T07:25:12.745Z,16.94
2018-06-13T07:26:12.922Z,16.72
2018-06-13T07:27:13.098Z,16.84
2018-06-13T07:28:13.649Z,16.84
2018-06-13T07:29:13.781Z,16.93
2018-06-13T07:30:14.278Z,17.02
2018-06-13T07:31:13.977Z,17.02
2018-06-13T07:32:14.172Z,17.09
2018-06-13T07:33:14.375Z,17.12
2018-06-13T07:34:14.633Z,17.16
2018-06-13T07:35:14.925Z,17.22
2018-06-13T07:36:14.934Z,17.29
2018-06-13T07:37:14.901Z,17.34
2018-06-13T07:38:15.169Z,17.42
2018-06-13T07:39:15.394Z,17.42
2018-06-13T07:40:15.369Z,17.33
2018-06-13T07:41:15.679Z,17.46
2018-06-13T07:42:15.859Z,17.45
2018-06-13T07:43:15.876Z,17.56
2018-06-13T07:44:16.151Z,17.57
2018-06-13T07:45:16.353Z,17.71
2018-06-13T07:46:16.424Z,17.83
2018-06-13T07:47:16.249Z,17.65
2018-06-13T07:48:16.439Z,17.59
2018-06-13T07:49:16.610Z,17.64
2018-06-13T07:50:16.794Z,17.46
2018-06-13T07:51:16.971Z,17.49
2018-06-13T07:52:17.152Z,17.60
2018-06-13T07:53:17.326Z,17.64
2018-06-13T07:54:17.499Z,17.48
2018-06-13T07:55:17.764Z,17.38
2018-06-13T07:56:17.855Z,17.27
2018-06-13T07:57:18.030Z,17.12
2018-06-13T07:58:18.203Z,17.20
2018-06-13T07:59:18.404Z,17.23
2018-06-13T08:00:18.750Z,17.34
2018-06-13T08:01:18.757Z,17.44
2018-06-13T08:02:18.943Z,17.52
2018-06-13T08:03:19.168Z,17.54
2018-06-13T08:04:19.209Z,17.46
2018-06-13T08:05:19.389Z,17.39
2018-06-13T08:06:19.564Z,17.41
2018-06-13T08:07:19.748Z,17.49
2018-06-13T08:08:19.981Z,17.39
2018-06-13T08:09:20.100Z,17.48
2018-06-13T08:10:20.306Z,17.46
2018-06-13T08:11:20.490Z,17.42
2018-06-13T08:12:20.664Z,17.49
2018-06-13T08:13:20.847Z,17.48
2018-06-13T08:14:21.030Z,17.45
2018-06-13T08:15:21.722Z,17.65
2018-06-13T08:16:21.396Z,17.70
2018-06-13T08:17:21.585Z,17.52
2018-06-13T08:18:21.768Z,17.72
2018-06-13T08:19:21.948Z,17.71
2018-06-13T08:20:22.133Z,17.83
2018-06-13T08:21:22.315Z,17.92
2018-06-13T08:22:22.501Z,17.90
2018-06-13T08:23:22.680Z,17.95
2018-06-13T08:24:22.863Z,18.00
2018-06-13T08:25:23.037Z,18.08
2018-06-13T08:26:23.227Z,18.04
2018-06-13T08:27:23.401Z,18.15
2018-06-13T08:28:23.594Z,18.13
2018-06-13T08:29:23.766Z,18.29
2018-06-13T08:30:23.974Z,18.18
2018-06-13T08:31:24.943Z,18.19
2018-06-13T08:32:24.345Z,18.10
2018-06-13T08:33:24.520Z,18.11
2018-06-13T08:34:24.697Z,17.95
2018-06-13T08:35:24.875Z,17.98
2018-06-13T08:36:26.884Z,17.97
2018-06-13T08:37:25.194Z,18.00
2018-06-13T08:38:25.376Z,17.98
2018-06-13T08:39:25.547Z,18.03
2018-06-13T08:40:25.728Z,18.01
2018-06-13T08:41:25.895Z,18.01
2018-06-13T08:42:26.083Z,18.00
2018-06-13T08:43:26.256Z,18.01
2018-06-13T08:44:26.431Z,18.00
2018-06-13T08:45:26.603Z,18.01
2018-06-13T08:46:26.814Z,17.82
2018-06-13T08:47:26.966Z,17.68
2018-06-13T08:48:27.150Z,17.78
2018-06-13T08:49:27.324Z,17.72
2018-06-13T08:50:27.493Z,17.82
2018-06-13T08:51:27.671Z,17.85
2018-06-13T08:52:27.846Z,17.89
2018-06-13T08:53:28.038Z,17.82
2018-06-13T08:54:28.212Z,17.71
2018-06-13T08:55:28.397Z,17.67
2018-06-13T08:56:28.579Z,17.70
2018-06-13T08:57:28.781Z,17.68
2018-06-13T08:58:28.957Z,17.70
2018-06-13T08:59:29.194Z,17.65
2018-06-13T09:00:29.240Z,17.60
2018-06-13T09:01:29.423Z,17.52
2018-06-13T09:02:29.595Z,17.60
2018-06-13T09:03:29.782Z,17.54
2018-06-13T09:04:29.963Z,17.68
2018-06-13T09:05:30.136Z,17.74
2018-06-13T09:06:30.316Z,17.54
2018-06-13T09:07:30.496Z,17.71
2018-06-13T09:08:30.679Z,17.82
2018-06-13T09:09:30.854Z,17.86
2018-06-13T09:10:31.030Z,17.97
2018-06-13T09:11:31.209Z,18.03
2018-06-13T09:12:31.423Z,18.11
2018-06-13T09:13:31.617Z,18.11
2018-06-13T09:14:31.791Z,18.08
2018-06-13T09:15:31.965Z,18.11
2018-06-13T09:16:32.147Z,17.90
2018-06-13T09:17:32.383Z,17.90
2018-06-13T09:18:32.660Z,17.97
2018-06-13T09:19:32.676Z,18.08
2018-06-13T09:20:32.863Z,18.26
2018-06-13T09:21:33.062Z,18.33
2018-06-13T09:22:33.241Z,18.45
2018-06-13T09:23:33.414Z,18.55
2018-06-13T09:24:33.592Z,18.68
2018-06-13T09:25:33.777Z,18.77
2018-06-13T09:26:33.954Z,18.81
2018-06-13T09:27:34.146Z,18.75
2018-06-13T09:28:34.344Z,18.88
2018-06-13T09:29:34.541Z,18.84
2018-06-13T09:30:34.727Z,18.83
2018-06-13T09:31:34.930Z,18.99
2018-06-13T09:32:35.099Z,18.77
2018-06-13T09:33:35.290Z,18.68
2018-06-13T09:34:35.461Z,18.75
2018-06-13T09:35:35.644Z,18.70
2018-06-13T09:36:35.813Z,18.58
2018-06-13T09:37:36.101Z,18.45
2018-06-13T09:38:36.201Z,18.45
2018-06-13T09:39:36.382Z,18.45
2018-06-13T09:40:36.554Z,18.35
2018-06-13T09:41:36.733Z,18.38
2018-06-13T09:42:36.908Z,18.38
2018-06-13T09:43:37.088Z,18.40
2018-06-13T09:44:37.263Z,18.43
2018-06-13T09:45:37.436Z,18.52
2018-06-13T09:46:37.611Z,18.40
2018-06-13T09:47:37.790Z,18.37
2018-06-13T09:48:37.970Z,18.16
2018-06-13T09:49:38.148Z,18.22
2018-06-13T09:50:38.330Z,18.19
2018-06-13T09:51:38.503Z,18.18
2018-06-13T09:52:38.700Z,18.23
2018-06-13T09:53:38.860Z,18.28
2018-06-13T09:54:39.051Z,18.23
2018-06-13T09:55:39.220Z,18.11
2018-06-13T09:56:39.446Z,18.05
2018-06-13T09:57:39.571Z,18.16
2018-06-13T09:58:39.751Z,18.13
2018-06-13T09:59:39.938Z,18.11
2018-06-13T10:00:40.114Z,18.28
2018-06-13T10:01:40.295Z,18.33
2018-06-13T10:02:41.232Z,18.31
2018-06-13T10:03:40.689Z,18.40
2018-06-13T10:04:40.898Z,18.52
2018-06-13T10:05:41.063Z,18.55
2018-06-13T10:06:41.247Z,18.58
2018-06-13T10:07:41.434Z,18.56
2018-06-13T10:08:41.657Z,18.56
2018-06-13T10:09:41.819Z,18.52
2018-06-13T10:10:41.993Z,18.55
2018-06-13T10:11:42.164Z,18.44
2018-06-13T10:12:42.346Z,18.43
2018-06-13T10:13:42.524Z,18.47
2018-06-13T10:14:42.702Z,18.38
2018-06-13T10:15:42.886Z,18.34
2018-06-13T10:16:43.054Z,18.38
2018-06-13T10:17:43.236Z,18.40
2018-06-13T10:18:43.474Z,18.60
2018-06-13T10:19:43.607Z,18.77
2018-06-13T10:20:43.775Z,18.84
2018-06-13T10:21:43.950Z,18.99
2018-06-13T10:22:44.123Z,19.33
2018-06-13T10:23:44.314Z,19.58
2018-06-13T10:24:44.489Z,19.69
2018-06-13T10:25:44.670Z,19.82
2018-06-13T10:26:44.857Z,19.85
2018-06-13T10:27:45.023Z,19.76
2018-06-13T10:28:45.206Z,19.62
2018-06-13T10:29:45.387Z,19.79
2018-06-13T10:30:45.566Z,19.70
2018-06-13T10:31:45.746Z,19.55
2018-06-13T10:32:45.930Z,19.49
2018-06-13T10:33:46.127Z,19.52
2018-06-13T10:34:46.297Z,19.41
2018-06-13T10:35:46.475Z,19.36
2018-06-13T10:36:46.752Z,19.31
2018-06-13T10:37:46.825Z,19.08
2018-06-13T10:38:47.001Z,18.99
2018-06-13T10:39:47.176Z,18.95
2018-06-13T10:40:47.360Z,18.74
2018-06-13T10:41:47.545Z,18.78
2018-06-13T10:42:47.729Z,18.56
2018-06-13T10:43:47.917Z,18.62
2018-06-13T10:44:48.148Z,18.50
2018-06-13T10:45:48.206Z,18.56
2018-06-13T10:46:48.383Z,18.33
2018-06-13T10:47:48.575Z,18.34
2018-06-13T10:48:48.769Z,18.38
2018-06-13T10:49:48.960Z,18.56
2018-06-13T10:50:49.144Z,18.35
2018-06-13T10:51:49.321Z,18.40
2018-06-13T10:52:49.581Z,18.49
2018-06-13T10:53:49.734Z,18.58
2018-06-13T10:54:49.919Z,18.71
2018-06-13T10:55:50.160Z,18.75
2018-06-13T10:56:50.238Z,18.78
2018-06-13T10:57:50.424Z,18.95
2018-06-13T10:58:50.604Z,19.00
2018-06-13T10:59:51.033Z,19.08
2018-06-13T11:00:51.006Z,19.09
2018-06-13T11:01:51.168Z,18.96
2018-06-13T11:02:51.619Z,18.95
2018-06-13T11:03:51.804Z,18.98
2018-06-13T11:04:51.798Z,19.14
2018-06-13T11:05:51.974Z,19.07
2018-06-13T11:06:52.156Z,19.04
2018-06-13T11:07:52.329Z,19.15
2018-06-13T11:08:52.516Z,19.11
2018-06-13T11:09:52.699Z,19.26
2018-06-13T11:10:52.877Z,19.16
2018-06-13T11:11:53.049Z,19.18
2018-06-13T11:12:53.230Z,19.31
2018-06-13T11:13:53.499Z,19.39
2018-06-13T11:14:53.592Z,19.21
2018-06-13T11:15:53.779Z,19.33
2018-06-13T11:16:53.954Z,19.37
2018-06-13T11:17:54.140Z,19.56
2018-06-13T11:18:54.319Z,19.66
2018-06-13T11:19:54.502Z,19.66
2018-06-13T11:20:54.729Z,19.62
2018-06-13T11:21:54.921Z,19.94
2018-06-13T11:22:55.151Z,19.74
2018-06-13T11:23:55.329Z,19.77
2018-06-13T11:24:55.518Z,19.86
2018-06-13T11:25:55.713Z,20.10
2018-06-13T11:26:57.544Z,20.26
2018-06-13T11:27:57.052Z,20.48
2018-06-13T11:28:57.427Z,20.41
2018-06-13T11:29:58.118Z,20.47
2018-06-13T11:30:57.844Z,20.51
2018-06-13T11:31:58.275Z,20.24
2018-06-13T11:32:56.988Z,20.04
2018-06-13T11:33:59.656Z,19.88
2018-06-13T11:34:58.744Z,19.96
2018-06-13T11:35:57.680Z,19.94
2018-06-13T11:36:57.794Z,19.92
2018-06-13T11:37:58.163Z,19.82
2018-06-13T11:38:58.170Z,19.82
2018-06-13T11:39:58.234Z,19.73
2018-06-13T11:40:58.498Z,19.59
2018-06-13T11:41:59.261Z,19.54
2018-06-13T11:42:58.964Z,19.59
2018-06-13T11:43:59.045Z,19.51
2018-06-13T11:44:59.318Z,19.22
2018-06-13T11:45:59.345Z,19.11
2018-06-13T11:46:59.510Z,19.08
2018-06-13T11:47:59.560Z,19.07
2018-06-13T11:48:59.580Z,19.26
2018-06-13T11:49:59.869Z,19.37
2018-06-13T11:51:00.056Z,19.58
2018-06-13T11:52:00.350Z,19.67
2018-06-13T11:53:00.460Z,19.76
2018-06-13T11:54:00.614Z,19.85
2018-06-13T11:55:00.826Z,20.03
2018-06-13T11:56:00.781Z,20.26
2018-06-13T11:57:01.322Z,20.59
2018-06-13T11:58:01.149Z,20.72
2018-06-13T11:59:01.271Z,20.88
2018-06-13T12:00:01.869Z,20.93
2018-06-13T12:01:01.240Z,21.14
2018-06-13T12:02:01.819Z,21.29
2018-06-13T12:03:01.811Z,20.93
2018-06-13T12:04:02.017Z,20.88
2018-06-13T12:05:03.199Z,21.02
2018-06-13T12:06:02.835Z,21.15
2018-06-13T12:07:03.401Z,20.88
2018-06-13T12:08:03.395Z,20.88
2018-06-13T12:09:03.213Z,20.66
2018-06-13T12:10:03.095Z,20.62
2018-06-13T12:11:03.545Z,20.59
2018-06-13T12:12:03.549Z,20.59
2018-06-13T12:13:03.765Z,20.41
2018-06-13T12:14:03.805Z,20.44
2018-06-13T12:15:04.050Z,20.14
2018-06-13T12:16:04.296Z,20.36
2018-06-13T12:17:04.395Z,20.22
2018-06-13T12:18:04.373Z,20.18
2018-06-13T12:19:04.592Z,20.25
2018-06-13T12:20:04.609Z,20.19
2018-06-13T12:21:04.966Z,20.22
2018-06-13T12:22:08.541Z,20.13
2018-06-13T12:23:05.268Z,20.10
2018-06-13T12:24:05.525Z,20.13
2018-06-13T12:25:05.226Z,20.18
2018-06-13T12:26:05.457Z,20.10
2018-06-13T12:27:05.682Z,20.03
2018-06-13T12:28:05.873Z,20.19
2018-06-13T12:29:06.046Z,20.37
2018-06-13T12:30:06.293Z,20.36
2018-06-13T12:31:06.365Z,20.26
2018-06-13T12:32:06.554Z,20.18
2018-06-13T12:33:06.781Z,20.36
2018-06-13T12:34:06.847Z,20.44
2018-06-13T12:35:07.036Z,20.48
2018-06-13T12:36:07.213Z,20.66
2018-06-13T12:37:07.398Z,20.67
2018-06-13T12:38:07.582Z,20.74
2018-06-13T12:39:08.094Z,20.60
2018-06-13T12:40:09.010Z,20.52
2018-06-13T12:41:10.026Z,20.58
2018-06-13T12:42:10.774Z,20.63
2018-06-13T12:43:09.263Z,20.44
2018-06-13T12:44:09.848Z,20.28
2018-06-13T12:45:10.278Z,20.18
2018-06-13T12:46:10.487Z,20.06
2018-06-13T12:47:10.452Z,20.07
2018-06-13T12:48:10.333Z,19.91
2018-06-13T12:49:11.376Z,19.91
2018-06-13T12:50:10.303Z,20.03
2018-06-13T12:51:11.307Z,20.18
2018-06-13T12:52:11.733Z,20.21
2018-06-13T12:53:10.227Z,20.32
2018-06-13T12:54:12.259Z,20.44
2018-06-13T12:55:11.913Z,20.51